createdAt,value
2023-06-26T00:00:35.112Z,20.34
2023-06-26T00:01:34.965Z,20.34
2023-06-26T00:02:34.742Z,20.30
2023-06-26T00:03:34.838Z,20.29
2023-06-26T00:04:35.422Z,20.30
2023-06-26T00:05:34.656Z,20.27
2023-06-26T00:06:34.668Z,20.29
2023-06-26T00:07:34.721Z,20.29
2023-06-26T00:08:34.714Z,20.29
2023-06-26T00:09:34.640Z,20.29
2023-06-26T00:10:34.711Z,20.30
2023-06-26T00:11:34.646Z,20.30
2023-06-26T00:12:34.583Z,20.33
2023-06-26T00:13:34.611Z,20.32
2023-06-26T00:14:34.572Z,20.32
2023-06-26T00:15:34.595Z,20.30
2023-06-26T00:16:34.516Z,20.32
2023-06-26T00:17:34.584Z,20.26
2023-06-26T00:18:34.485Z,20.26
2023-06-26T00:19:34.485Z,20.25
2023-06-26T00:20:34.467Z,20.19
2023-06-26T00:21:34.509Z,20.23
2023-06-26T00:22:34.467Z,20.26
2023-06-26T00:23:34.447Z,20.27
2023-06-26T00:24:34.429Z,20.29
2023-06-26T00:25:34.448Z,20.30
2023-06-26T00:26:34.433Z,20.32
2023-06-26T00:27:34.477Z,20.33
2023-06-26T00:28:34.448Z,20.33
2023-06-26T00:29:34.392Z,20.33
2023-06-26T00:30:34.372Z,20.37
2023-06-26T00:31:34.414Z,20.37
2023-06-26T00:32:34.416Z,20.36
2023-06-26T00:33:34.379Z,20.34
2023-06-26T00:34:34.332Z,20.36
2023-06-26T00:35:34.311Z,20.36
2023-06-26T00:36:34.313Z,20.39
2023-06-26T00:37:34.432Z,20.37
2023-06-26T00:38:34.351Z,20.37
2023-06-26T00:39:34.289Z,20.39
2023-06-26T00:40:34.328Z,20.39
2023-06-26T00:41:34.255Z,20.39
2023-06-26T00:42:34.282Z,20.41
2023-06-26T00:43:34.324Z,20.42
2023-06-26T00:44:34.237Z,20.44
2023-06-26T00:45:42.992Z,20.44
2023-06-26T00:46:34.214Z,20.48
2023-06-26T00:47:34.256Z,20.48
2023-06-26T00:48:34.207Z,20.49
2023-06-26T00:49:34.250Z,20.52
2023-06-26T00:50:34.180Z,20.52
2023-06-26T00:51:34.205Z,20.55
2023-06-26T00:52:34.209Z,20.55
2023-06-26T00:53:34.184Z,20.55
2023-06-26T00:54:34.114Z,20.56
2023-06-26T00:55:34.261Z,20.60
2023-06-26T00:56:34.156Z,20.60
2023-06-26T00:57:34.099Z,20.60
2023-06-26T00:58:34.137Z,20.56
2023-06-26T00:59:34.050Z,20.58
2023-06-26T01:00:34.164Z,20.58
2023-06-26T01:01:34.038Z,20.60
2023-06-26T01:02:34.076Z,20.61
2023-06-26T01:03:34.208Z,20.63
2023-06-26T01:04:34.087Z,20.63
2023-06-26T01:05:33.992Z,20.63
2023-06-26T01:06:34.071Z,20.67
2023-06-26T01:07:34.096Z,20.68
2023-06-26T01:08:33.949Z,20.70
2023-06-26T01:09:33.942Z,20.73
2023-06-26T01:10:33.953Z,20.73
2023-06-26T01:11:34.070Z,20.74
2023-06-26T01:12:33.945Z,20.74
2023-06-26T01:13:33.902Z,20.71
2023-06-26T01:14:33.925Z,20.73
2023-06-26T01:15:33.884Z,20.73
2023-06-26T01:16:33.890Z,20.74
2023-06-26T01:17:33.887Z,20.74
2023-06-26T01:18:33.851Z,20.73
2023-06-26T01:19:33.840Z,20.73
2023-06-26T01:20:33.853Z,20.68
2023-06-26T01:21:34.222Z,20.67
2023-06-26T01:22:33.835Z,20.63
2023-06-26T01:23:33.810Z,20.60
2023-06-26T01:24:33.850Z,20.58
2023-06-26T01:25:33.924Z,20.53
2023-06-26T01:26:33.807Z,20.53
2023-06-26T01:27:33.853Z,20.50
2023-06-26T01:28:33.998Z,20.49
2023-06-26T01:29:33.953Z,20.48
2023-06-26T01:30:33.949Z,20.48
2023-06-26T01:31:34.011Z,20.46
2023-06-26T01:32:33.875Z,20.42
2023-06-26T01:33:33.758Z,20.44
2023-06-26T01:34:33.716Z,20.42
2023-06-26T01:35:34.234Z,20.41
2023-06-26T01:36:33.998Z,20.37
2023-06-26T01:37:34.912Z,20.34
2023-06-26T01:38:33.998Z,20.34
2023-06-26T01:39:33.979Z,20.32
2023-06-26T01:40:33.653Z,20.33
2023-06-26T01:41:34.268Z,20.33
2023-06-26T01:42:33.692Z,20.33
2023-06-26T01:43:33.986Z,20.30
2023-06-26T01:44:33.660Z,20.30
2023-06-26T01:45:33.704Z,20.30
2023-06-26T01:46:36.220Z,20.29
2023-06-26T01:47:33.658Z,20.26
2023-06-26T01:48:33.545Z,20.26
2023-06-26T01:49:33.550Z,20.23
2023-06-26T01:50:33.579Z,20.22
2023-06-26T01:51:33.572Z,20.17
2023-06-26T01:52:33.557Z,20.17
2023-06-26T01:53:33.631Z,20.14
2023-06-26T01:54:33.486Z,20.09
2023-06-26T01:55:33.456Z,20.09
2023-06-26T01:56:33.434Z,20.07
2023-06-26T01:57:33.416Z,20.04
2023-06-26T01:58:33.440Z,20.00
2023-06-26T01:59:33.407Z,19.99
2023-06-26T02:00:33.409Z,19.96
2023-06-26T02:01:33.408Z,19.94
2023-06-26T02:02:33.445Z,19.94
2023-06-26T02:03:33.473Z,19.92
2023-06-26T02:04:33.365Z,19.90
2023-06-26T02:05:33.331Z,19.87
2023-06-26T02:06:33.321Z,19.82
2023-06-26T02:07:33.351Z,19.82
2023-06-26T02:08:33.315Z,19.78
2023-06-26T02:09:33.374Z,19.77
2023-06-26T02:10:33.318Z,19.72
2023-06-26T02:11:33.288Z,19.72
2023-06-26T02:12:33.351Z,19.70
2023-06-26T02:13:33.234Z,19.68
2023-06-26T02:14:33.261Z,19.67
2023-06-26T02:15:33.225Z,19.64
2023-06-26T02:16:33.265Z,19.64
2023-06-26T02:17:33.821Z,19.63
2023-06-26T02:18:33.203Z,19.60
2023-06-26T02:19:33.209Z,19.60
2023-06-26T02:20:33.263Z,19.59
2023-06-26T02:21:33.155Z,19.57
2023-06-26T02:22:33.162Z,19.53
2023-06-26T02:23:33.147Z,19.52
2023-06-26T02:24:33.157Z,19.50
2023-06-26T02:25:33.170Z,19.47
2023-06-26T02:26:33.099Z,19.47
2023-06-26T02:27:33.102Z,19.44
2023-06-26T02:28:33.120Z,19.41
2023-06-26T02:29:33.138Z,19.39
2023-06-26T02:30:33.064Z,19.37
2023-06-26T02:31:33.087Z,19.34
2023-06-26T02:32:33.046Z,19.32
2023-06-26T02:33:33.021Z,19.31
2023-06-26T02:34:33.049Z,19.27
2023-06-26T02:35:33.046Z,19.26
2023-06-26T02:36:33.064Z,19.24
2023-06-26T02:37:32.990Z,19.26
2023-06-26T02:38:33.017Z,19.26
2023-06-26T02:39:32.961Z,19.24
2023-06-26T02:40:32.970Z,19.22
2023-06-26T02:41:32.975Z,19.19
2023-06-26T02:42:32.887Z,19.20
2023-06-26T02:43:32.887Z,19.19
2023-06-26T02:44:32.901Z,19.19
2023-06-26T02:45:32.868Z,19.17
2023-06-26T02:46:32.923Z,19.17
2023-06-26T02:47:33.178Z,19.16
2023-06-26T02:48:32.856Z,19.16
2023-06-26T02:49:32.890Z,19.15
2023-06-26T02:50:33.134Z,19.13
2023-06-26T02:51:32.858Z,19.12
2023-06-26T02:52:32.811Z,19.12
2023-06-26T02:53:32.850Z,19.13
2023-06-26T02:54:32.763Z,19.12
2023-06-26T02:55:32.780Z,19.15
2023-06-26T02:56:32.766Z,19.15
2023-06-26T02:57:32.721Z,19.15
2023-06-26T02:58:32.715Z,19.15
2023-06-26T02:59:32.708Z,19.13
2023-06-26T03:00:32.727Z,19.12
2023-06-26T03:01:32.839Z,19.12
2023-06-26T03:02:32.714Z,19.09
2023-06-26T03:03:32.654Z,19.08
2023-06-26T03:04:32.754Z,19.08
2023-06-26T03:05:32.655Z,19.08
2023-06-26T03:06:32.696Z,19.05
2023-06-26T03:07:32.703Z,19.04
2023-06-26T03:08:32.620Z,19.00
2023-06-26T03:09:32.619Z,18.98
2023-06-26T03:10:32.682Z,18.98
2023-06-26T03:11:32.612Z,18.94
2023-06-26T03:12:32.624Z,18.94
2023-06-26T03:13:32.544Z,18.93
2023-06-26T03:14:32.545Z,18.98
2023-06-26T03:15:32.534Z,18.98
2023-06-26T03:16:32.574Z,19.00
2023-06-26T03:17:32.541Z,19.04
2023-06-26T03:18:32.541Z,19.07
2023-06-26T03:19:32.532Z,19.04
2023-06-26T03:20:32.522Z,19.05
2023-06-26T03:21:32.469Z,19.05
2023-06-26T03:22:32.479Z,19.05
2023-06-26T03:23:32.446Z,19.04
2023-06-26T03:24:32.489Z,19.04
2023-06-26T03:25:32.418Z,19.01
2023-06-26T03:26:32.466Z,19.05
2023-06-26T03:27:32.424Z,19.01
2023-06-26T03:28:32.409Z,19.01
2023-06-26T03:29:32.376Z,19.09
2023-06-26T03:30:32.412Z,19.19
2023-06-26T03:31:32.392Z,19.26
2023-06-26T03:32:32.507Z,19.35
2023-06-26T03:33:32.338Z,19.41
2023-06-26T03:34:32.344Z,19.47
2023-06-26T03:35:32.334Z,19.54
2023-06-26T03:36:32.340Z,19.63
2023-06-26T03:37:32.323Z,19.82
2023-06-26T03:38:32.314Z,20.02
2023-06-26T03:39:32.311Z,20.14
2023-06-26T03:40:32.312Z,20.17
2023-06-26T03:41:32.258Z,20.32
2023-06-26T03:42:32.255Z,20.46
2023-06-26T03:43:32.244Z,20.63
2023-06-26T03:44:32.249Z,20.71
2023-06-26T03:45:32.249Z,20.77
2023-06-26T03:46:32.297Z,20.83
2023-06-26T03:47:32.249Z,20.89
2023-06-26T03:48:32.242Z,20.93
2023-06-26T03:49:32.234Z,20.97
2023-06-26T03:50:32.175Z,20.97
2023-06-26T03:51:32.183Z,21.03
2023-06-26T03:52:32.168Z,21.04
2023-06-26T03:53:32.123Z,21.08
2023-06-26T03:54:32.180Z,21.11
2023-06-26T03:55:32.187Z,21.11
2023-06-26T03:56:32.137Z,21.10
2023-06-26T03:57:32.422Z,21.07
2023-06-26T03:58:32.091Z,21.05
2023-06-26T03:59:32.098Z,21.05
2023-06-26T04:00:32.084Z,21.05
2023-06-26T04:01:32.175Z,21.07
2023-06-26T04:02:32.091Z,21.08
2023-06-26T04:03:32.178Z,21.11
2023-06-26T04:04:32.075Z,21.10
2023-06-26T04:05:32.021Z,21.08
2023-06-26T04:06:32.010Z,21.11
2023-06-26T04:07:32.074Z,21.14
2023-06-26T04:08:31.977Z,21.14
2023-06-26T04:09:31.965Z,21.16
2023-06-26T04:10:31.956Z,21.18
2023-06-26T04:11:31.945Z,21.19
2023-06-26T04:12:31.969Z,21.18
2023-06-26T04:13:31.912Z,21.16
2023-06-26T04:14:31.929Z,21.13
2023-06-26T04:15:31.888Z,21.16
2023-06-26T04:16:31.911Z,21.16
2023-06-26T04:17:31.923Z,21.16
2023-06-26T04:18:31.885Z,21.18
2023-06-26T04:19:32.031Z,21.18
2023-06-26T04:20:31.859Z,21.22
2023-06-26T04:21:31.972Z,21.19
2023-06-26T04:22:31.862Z,21.20
2023-06-26T04:23:31.816Z,21.22
2023-06-26T04:24:32.010Z,21.25
2023-06-26T04:25:31.823Z,21.25
2023-06-26T04:26:31.809Z,21.26
2023-06-26T04:27:31.798Z,21.29
2023-06-26T04:28:31.794Z,21.29
2023-06-26T04:29:31.736Z,21.32
2023-06-26T04:30:31.742Z,21.29
2023-06-26T04:31:31.781Z,21.29
2023-06-26T04:32:32.111Z,21.30
2023-06-26T04:33:31.922Z,21.32
2023-06-26T04:34:31.768Z,21.32
2023-06-26T04:35:31.714Z,21.35
2023-06-26T04:36:31.842Z,21.37
2023-06-26T04:37:31.660Z,21.38
2023-06-26T04:38:31.659Z,21.40
2023-06-26T04:39:31.632Z,21.40
2023-06-26T04:40:31.628Z,21.44
2023-06-26T04:41:31.686Z,21.43
2023-06-26T04:42:31.643Z,21.43
2023-06-26T04:43:31.691Z,21.41
2023-06-26T04:44:31.599Z,21.44
2023-06-26T04:45:31.618Z,21.41
2023-06-26T04:46:31.631Z,21.40
2023-06-26T04:47:31.604Z,21.43
2023-06-26T04:48:31.600Z,21.44
2023-06-26T04:49:31.519Z,21.44
2023-06-26T04:50:31.556Z,21.44
2023-06-26T04:51:31.517Z,21.41
2023-06-26T04:52:31.506Z,21.45
2023-06-26T04:53:31.504Z,21.47
2023-06-26T04:54:31.504Z,21.47
2023-06-26T04:55:31.449Z,21.44
2023-06-26T04:56:31.453Z,21.47
2023-06-26T04:57:31.455Z,21.44
2023-06-26T04:58:31.594Z,21.47
2023-06-26T04:59:31.618Z,21.48
2023-06-26T05:00:31.389Z,21.48
2023-06-26T05:01:31.444Z,21.45
2023-06-26T05:02:31.454Z,21.45
2023-06-26T05:03:31.545Z,21.50
2023-06-26T05:04:31.519Z,21.51
2023-06-26T05:05:31.372Z,21.48
2023-06-26T05:06:31.341Z,21.45
2023-06-26T05:07:31.398Z,21.47
2023-06-26T05:08:31.304Z,21.48
2023-06-26T05:09:31.315Z,21.53
2023-06-26T05:10:31.424Z,21.55
2023-06-26T05:11:31.403Z,21.55
2023-06-26T05:12:31.290Z,21.56
2023-06-26T05:13:31.267Z,21.56
2023-06-26T05:14:31.321Z,21.59
2023-06-26T05:15:31.273Z,21.62
2023-06-26T05:16:31.216Z,21.63
2023-06-26T05:17:31.256Z,21.62
2023-06-26T05:18:31.199Z,21.62
2023-06-26T05:19:31.208Z,21.63
2023-06-26T05:20:31.243Z,21.65
2023-06-26T05:21:31.174Z,21.63
2023-06-26T05:22:31.160Z,21.63
2023-06-26T05:23:31.144Z,21.66
2023-06-26T05:24:31.255Z,21.63
2023-06-26T05:25:31.408Z,21.65
2023-06-26T05:26:31.284Z,21.58
2023-06-26T05:27:31.110Z,21.59
2023-06-26T05:28:31.113Z,21.62
2023-06-26T05:29:31.106Z,21.67
2023-06-26T05:30:31.115Z,21.69
2023-06-26T05:31:31.161Z,21.67
2023-06-26T05:32:31.087Z,21.71
2023-06-26T05:33:31.090Z,21.71
2023-06-26T05:34:31.076Z,21.71
2023-06-26T05:35:31.103Z,21.74
2023-06-26T05:36:32.016Z,21.69
2023-06-26T05:37:31.012Z,21.69
2023-06-26T05:38:31.048Z,21.69
2023-06-26T05:39:30.989Z,21.69
2023-06-26T05:40:31.017Z,21.67
2023-06-26T05:41:31.002Z,21.71
2023-06-26T05:42:30.946Z,21.77
2023-06-26T05:43:31.065Z,21.82
2023-06-26T05:44:31.359Z,21.82
2023-06-26T05:45:30.945Z,21.81
2023-06-26T05:46:30.920Z,21.84
2023-06-26T05:47:31.004Z,21.90
2023-06-26T05:48:30.930Z,21.85
2023-06-26T05:49:31.415Z,21.90
2023-06-26T05:50:30.878Z,21.91
2023-06-26T05:51:30.862Z,21.94
2023-06-26T05:52:30.894Z,21.94
2023-06-26T05:53:30.883Z,22.00
2023-06-26T05:54:30.843Z,22.01
2023-06-26T05:55:30.999Z,22.06
2023-06-26T05:56:30.817Z,22.11
2023-06-26T05:57:30.803Z,22.18
2023-06-26T05:58:30.814Z,22.23
2023-06-26T05:59:30.781Z,22.33
2023-06-26T06:00:30.768Z,22.31
2023-06-26T06:01:30.795Z,22.30
2023-06-26T06:02:32.002Z,22.33
2023-06-26T06:03:30.893Z,22.36
2023-06-26T06:04:30.719Z,22.23
2023-06-26T06:05:30.724Z,22.22
2023-06-26T06:06:30.755Z,22.27
2023-06-26T06:07:30.746Z,22.25
2023-06-26T06:08:30.774Z,22.19
2023-06-26T06:09:30.727Z,22.16
2023-06-26T06:10:30.656Z,22.04
2023-06-26T06:11:30.668Z,22.00
2023-06-26T06:12:30.640Z,21.91
2023-06-26T06:13:30.675Z,21.93
2023-06-26T06:14:30.666Z,21.82
2023-06-26T06:15:31.290Z,21.77
2023-06-26T06:16:30.615Z,21.75
2023-06-26T06:17:30.635Z,21.73
2023-06-26T06:18:30.568Z,21.66
2023-06-26T06:19:30.582Z,21.73
2023-06-26T06:20:30.575Z,21.80
2023-06-26T06:21:30.566Z,21.93
2023-06-26T06:22:30.530Z,22.03
2023-06-26T06:23:30.765Z,22.04
2023-06-26T06:24:31.022Z,22.03
2023-06-26T06:25:30.570Z,22.06
2023-06-26T06:26:30.486Z,21.98
2023-06-26T06:27:30.516Z,22.03
2023-06-26T06:28:30.492Z,22.13
2023-06-26T06:29:30.470Z,22.21
2023-06-26T06:30:44.344Z,22.25
2023-06-26T06:31:30.472Z,22.41
2023-06-26T06:32:30.471Z,22.38
2023-06-26T06:33:30.433Z,22.22
2023-06-26T06:34:30.411Z,22.09
2023-06-26T06:35:30.861Z,22.07
2023-06-26T06:36:30.417Z,22.11
2023-06-26T06:37:30.381Z,22.22
2023-06-26T06:38:30.361Z,22.22
2023-06-26T06:39:30.358Z,22.31
2023-06-26T06:40:30.359Z,22.31
2023-06-26T06:41:30.375Z,22.40
2023-06-26T06:42:30.338Z,22.43
2023-06-26T06:43:30.324Z,22.31
2023-06-26T06:44:30.303Z,22.25
2023-06-26T06:45:30.411Z,22.15
2023-06-26T06:46:30.289Z,22.07
2023-06-26T06:47:30.409Z,22.09
2023-06-26T06:48:30.252Z,21.94
2023-06-26T06:49:30.269Z,21.84
2023-06-26T06:50:30.251Z,21.73
2023-06-26T06:51:30.219Z,21.69
2023-06-26T06:52:30.283Z,21.71
2023-06-26T06:53:30.210Z,21.77
2023-06-26T06:54:30.196Z,21.74
2023-06-26T06:55:30.181Z,21.75
2023-06-26T06:56:30.178Z,21.65
2023-06-26T06:57:30.274Z,21.75
2023-06-26T06:58:30.143Z,21.88
2023-06-26T06:59:30.148Z,22.00
2023-06-26T07:00:30.169Z,22.04
2023-06-26T07:01:30.216Z,22.07
2023-06-26T07:02:30.145Z,22.11
2023-06-26T07:03:30.228Z,22.07
2023-06-26T07:04:30.067Z,22.16
2023-06-26T07:05:30.093Z,22.25
2023-06-26T07:06:30.131Z,22.12
2023-06-26T07:07:31.473Z,22.13
2023-06-26T07:08:30.039Z,22.09
2023-06-26T07:09:30.065Z,22.09
2023-06-26T07:10:30.276Z,22.16
2023-06-26T07:11:30.037Z,22.16
2023-06-26T07:12:30.041Z,22.23
2023-06-26T07:13:30.017Z,22.31
2023-06-26T07:14:30.127Z,22.37
2023-06-26T07:15:29.969Z,22.44
2023-06-26T07:16:30.215Z,22.52
2023-06-26T07:17:29.971Z,22.46
2023-06-26T07:18:29.978Z,22.46
2023-06-26T07:19:29.939Z,22.55
2023-06-26T07:20:30.028Z,22.64
2023-06-26T07:21:29.922Z,22.70
2023-06-26T07:22:30.154Z,22.86
2023-06-26T07:23:29.900Z,22.96
2023-06-26T07:24:29.860Z,23.03
2023-06-26T07:25:29.866Z,22.95
2023-06-26T07:26:43.838Z,22.88
2023-06-26T07:27:29.934Z,22.96
2023-06-26T07:28:29.882Z,23.06
2023-06-26T07:29:29.821Z,23.11
2023-06-26T07:30:29.823Z,23.04
2023-06-26T07:31:29.896Z,22.98
2023-06-26T07:32:29.797Z,22.99
2023-06-26T07:33:29.815Z,23.11
2023-06-26T07:34:29.877Z,23.07
2023-06-26T07:35:29.783Z,23.04
2023-06-26T07:36:29.760Z,23.18
2023-06-26T07:37:29.878Z,23.13
2023-06-26T07:38:29.730Z,23.11
2023-06-26T07:39:30.112Z,23.18
2023-06-26T07:40:29.714Z,23.26
2023-06-26T07:41:29.733Z,23.28
2023-06-26T07:42:29.731Z,23.29
2023-06-26T07:43:29.707Z,23.26
2023-06-26T07:44:29.650Z,23.36
2023-06-26T07:45:29.660Z,23.52
2023-06-26T07:46:29.948Z,23.37
2023-06-26T07:47:29.668Z,23.39
2023-06-26T07:48:29.600Z,23.46
2023-06-26T07:49:29.652Z,23.59
2023-06-26T07:50:29.706Z,23.76
2023-06-26T07:51:29.596Z,23.61
2023-06-26T07:52:29.566Z,23.61
2023-06-26T07:53:29.585Z,23.79
2023-06-26T07:54:29.865Z,23.69
2023-06-26T07:55:29.570Z,23.76
2023-06-26T07:56:29.524Z,23.79
2023-06-26T07:57:29.522Z,23.88
2023-06-26T07:58:29.617Z,23.85
2023-06-26T07:59:29.490Z,24.00
2023-06-26T08:00:29.793Z,24.07
2023-06-26T08:01:29.490Z,24.13
2023-06-26T08:02:29.482Z,24.03
2023-06-26T08:03:34.854Z,23.98
2023-06-26T08:04:29.604Z,24.16
2023-06-26T08:05:29.605Z,23.98
2023-06-26T08:06:29.510Z,23.92
2023-06-26T08:07:29.438Z,23.94
2023-06-26T08:08:29.398Z,24.03
2023-06-26T08:09:29.420Z,24.03
2023-06-26T08:10:29.400Z,23.94
2023-06-26T08:11:29.386Z,23.88
2023-06-26T08:12:29.350Z,23.82
2023-06-26T08:13:29.354Z,23.76
2023-06-26T08:14:29.335Z,23.63
2023-06-26T08:15:29.421Z,23.59
2023-06-26T08:16:29.316Z,23.46
2023-06-26T08:17:30.604Z,23.54
2023-06-26T08:18:29.286Z,23.64
2023-06-26T08:19:29.285Z,23.71
2023-06-26T08:20:29.318Z,23.82
2023-06-26T08:21:29.253Z,23.96
2023-06-26T08:22:29.241Z,24.08
2023-06-26T08:23:29.234Z,24.18
2023-06-26T08:24:29.209Z,24.13
2023-06-26T08:25:29.277Z,24.13
2023-06-26T08:26:29.193Z,24.00
2023-06-26T08:27:29.209Z,23.78
2023-06-26T08:28:29.183Z,23.73
2023-06-26T08:29:29.189Z,23.81
2023-06-26T08:30:29.248Z,23.74
2023-06-26T08:31:29.186Z,23.81
2023-06-26T08:32:29.193Z,23.69
2023-06-26T08:33:29.509Z,23.76
2023-06-26T08:34:29.189Z,23.88
2023-06-26T08:35:29.112Z,24.13
2023-06-26T08:36:29.202Z,24.28
2023-06-26T08:37:29.365Z,24.43
2023-06-26T08:38:29.075Z,24.44
2023-06-26T08:39:29.074Z,24.40
2023-06-26T08:40:29.043Z,24.36
2023-06-26T08:41:29.102Z,24.16
2023-06-26T08:42:29.310Z,24.15
2023-06-26T08:43:29.033Z,24.13
2023-06-26T08:44:29.022Z,24.11
2023-06-26T08:45:29.062Z,24.10
2023-06-26T08:46:29.084Z,23.98
2023-06-26T08:47:29.064Z,23.73
2023-06-26T08:48:28.975Z,23.64
2023-06-26T08:49:29.180Z,23.59
2023-06-26T08:50:28.953Z,23.54
2023-06-26T08:51:28.966Z,23.67
2023-06-26T08:52:30.568Z,23.76
2023-06-26T08:53:28.952Z,23.97
2023-06-26T08:54:28.907Z,24.29
2023-06-26T08:55:28.950Z,24.60
2023-06-26T08:56:28.889Z,24.59
2023-06-26T08:57:28.926Z,24.65
2023-06-26T08:58:28.883Z,24.91
2023-06-26T08:59:28.908Z,24.91
2023-06-26T09:00:29.891Z,24.74
2023-06-26T09:01:28.858Z,24.60
2023-06-26T09:02:29.314Z,24.97
2023-06-26T09:03:29.091Z,24.85
2023-06-26T09:04:28.881Z,24.84
2023-06-26T09:05:28.834Z,24.75
2023-06-26T09:06:28.788Z,24.60
2023-06-26T09:07:28.956Z,24.38
2023-06-26T09:08:28.814Z,24.25
2023-06-26T09:09:28.826Z,24.08
2023-06-26T09:10:28.754Z,24.21
2023-06-26T09:11:28.968Z,24.41
2023-06-26T09:12:28.737Z,24.78
2023-06-26T09:13:30.313Z,24.78
2023-06-26T09:14:28.964Z,24.65
2023-06-26T09:15:28.734Z,24.75
2023-06-26T09:16:28.775Z,24.84
2023-06-26T09:17:28.718Z,24.71
2023-06-26T09:18:28.694Z,24.71
2023-06-26T09:19:28.657Z,24.70
2023-06-26T09:20:28.650Z,24.84
2023-06-26T09:21:28.682Z,25.06
2023-06-26T09:22:28.656Z,25.34
2023-06-26T09:23:28.647Z,25.67
2023-06-26T09:24:28.652Z,25.71
2023-06-26T09:25:28.605Z,25.63
2023-06-26T09:26:28.662Z,25.75
2023-06-26T09:27:28.576Z,25.98
2023-06-26T09:28:28.804Z,26.27
2023-06-26T09:29:28.587Z,26.10
2023-06-26T09:30:28.578Z,25.81
2023-06-26T09:31:40.593Z,25.45
2023-06-26T09:32:28.615Z,25.11
2023-06-26T09:33:28.552Z,24.96
2023-06-26T09:34:28.522Z,24.94
2023-06-26T09:35:28.533Z,25.12
2023-06-26T09:36:28.503Z,25.27
2023-06-26T09:37:28.481Z,25.12
2023-06-26T09:38:28.491Z,24.99
2023-06-26T09:39:28.474Z,25.03
2023-06-26T09:40:28.491Z,25.03
2023-06-26T09:41:28.547Z,25.06
2023-06-26T09:42:28.464Z,25.23
2023-06-26T09:43:28.423Z,25.40
2023-06-26T09:44:28.409Z,25.48
2023-06-26T09:45:28.403Z,25.59
2023-06-26T09:46:28.620Z,25.75
2023-06-26T09:47:28.372Z,26.00
2023-06-26T09:48:28.350Z,26.12
2023-06-26T09:49:28.348Z,25.93
2023-06-26T09:50:28.672Z,25.88
2023-06-26T09:51:28.358Z,25.64
2023-06-26T09:52:28.343Z,25.68
2023-06-26T09:53:28.298Z,25.78
2023-06-26T09:54:28.320Z,25.67
2023-06-26T09:55:28.271Z,25.46
2023-06-26T09:56:28.296Z,25.16
2023-06-26T09:57:28.286Z,25.33
2023-06-26T09:58:28.256Z,25.38
2023-06-26T09:59:28.255Z,25.51
2023-06-26T10:00:28.351Z,25.67
2023-06-26T10:01:28.495Z,25.82
2023-06-26T10:02:28.337Z,26.15
2023-06-26T10:03:28.261Z,26.23
2023-06-26T10:04:28.266Z,26.45
2023-06-26T10:05:28.172Z,26.20
2023-06-26T10:06:28.169Z,25.88
2023-06-26T10:07:28.250Z,25.81
2023-06-26T10:08:28.130Z,25.61
2023-06-26T10:09:29.616Z,25.40
2023-06-26T10:10:28.176Z,25.33
2023-06-26T10:11:28.135Z,25.18
2023-06-26T10:12:28.135Z,25.06
2023-06-26T10:13:28.076Z,24.93
2023-06-26T10:14:28.095Z,24.70
2023-06-26T10:15:28.146Z,24.33
2023-06-26T10:16:28.548Z,24.04
2023-06-26T10:17:28.209Z,24.13
2023-06-26T10:18:28.030Z,24.53
2023-06-26T10:19:28.008Z,24.90
2023-06-26T10:20:28.058Z,25.04
2023-06-26T10:21:28.036Z,25.19
2023-06-26T10:22:27.985Z,25.37
2023-06-26T10:23:28.496Z,25.74
2023-06-26T10:24:27.950Z,26.00
2023-06-26T10:25:28.037Z,26.04
2023-06-26T10:26:27.947Z,25.90
2023-06-26T10:27:27.949Z,25.86
2023-06-26T10:28:27.913Z,26.00
2023-06-26T10:29:27.902Z,26.34
2023-06-26T10:30:27.957Z,26.45
2023-06-26T10:31:27.957Z,26.71
2023-06-26T10:32:27.899Z,26.88
2023-06-26T10:33:27.922Z,26.97
2023-06-26T10:34:27.889Z,26.49
2023-06-26T10:35:27.848Z,26.19
2023-06-26T10:36:27.856Z,25.96
2023-06-26T10:37:27.815Z,25.34
2023-06-26T10:38:27.837Z,25.01
2023-06-26T10:39:27.856Z,24.91
2023-06-26T10:40:27.998Z,25.08
2023-06-26T10:41:28.025Z,25.27
2023-06-26T10:42:27.770Z,25.55
2023-06-26T10:43:27.797Z,26.00
2023-06-26T10:44:28.730Z,26.36
2023-06-26T10:45:27.730Z,26.60
2023-06-26T10:46:27.798Z,26.73
2023-06-26T10:47:27.893Z,26.89
2023-06-26T10:48:27.718Z,27.00
2023-06-26T10:49:27.691Z,26.85
2023-06-26T10:50:27.718Z,26.73
2023-06-26T10:51:27.661Z,26.82
2023-06-26T10:52:27.662Z,27.05
2023-06-26T10:53:27.742Z,27.23
2023-06-26T10:54:27.661Z,27.44
2023-06-26T10:55:27.622Z,27.64
2023-06-26T10:56:27.605Z,27.88
2023-06-26T10:57:28.717Z,27.69
2023-06-26T10:58:27.665Z,27.41
2023-06-26T10:59:27.988Z,26.93
2023-06-26T11:00:27.579Z,26.41
2023-06-26T11:01:27.642Z,25.90
2023-06-26T11:02:27.564Z,25.38
2023-06-26T11:03:27.554Z,25.11
2023-06-26T11:04:27.581Z,24.86
2023-06-26T11:05:27.516Z,24.78
2023-06-26T11:06:27.519Z,24.81
2023-06-26T11:07:27.597Z,24.71
2023-06-26T11:08:27.531Z,24.56
2023-06-26T11:09:27.524Z,24.44
2023-06-26T11:10:27.483Z,24.31
2023-06-26T11:11:27.454Z,24.38
2023-06-26T11:12:27.445Z,24.40
2023-06-26T11:13:27.453Z,24.28
2023-06-26T11:14:27.471Z,24.58
2023-06-26T11:15:27.408Z,24.97
2023-06-26T11:16:27.428Z,24.94
2023-06-26T11:17:27.662Z,25.11
2023-06-26T11:18:27.387Z,25.38
2023-06-26T11:19:27.385Z,25.51
2023-06-26T11:20:27.361Z,25.83
2023-06-26T11:21:27.350Z,26.11
2023-06-26T11:22:27.347Z,26.31
2023-06-26T11:23:27.328Z,26.30
2023-06-26T11:24:27.322Z,26.46
2023-06-26T11:25:27.306Z,26.43
2023-06-26T11:26:27.291Z,26.82
2023-06-26T11:27:27.264Z,27.19
2023-06-26T11:28:27.322Z,27.35
2023-06-26T11:29:27.291Z,27.03
2023-06-26T11:30:27.442Z,26.63
2023-06-26T11:31:27.307Z,26.70
2023-06-26T11:32:27.262Z,26.41
2023-06-26T11:33:27.225Z,26.03
2023-06-26T11:34:27.244Z,25.88
2023-06-26T11:35:27.278Z,25.68
2023-06-26T11:36:27.176Z,25.68
2023-06-26T11:37:27.179Z,25.63
2023-06-26T11:38:27.230Z,25.45
2023-06-26T11:39:27.135Z,25.26
2023-06-26T11:40:27.163Z,25.03
2023-06-26T11:41:27.127Z,24.97
2023-06-26T11:42:27.113Z,25.15
2023-06-26T11:43:27.113Z,25.51
2023-06-26T11:44:27.125Z,25.88
2023-06-26T11:45:27.107Z,26.31
2023-06-26T11:46:27.077Z,26.79
2023-06-26T11:47:27.130Z,27.44
2023-06-26T11:48:27.174Z,27.38
2023-06-26T11:49:27.135Z,27.54
2023-06-26T11:50:27.057Z,28.05
2023-06-26T11:51:27.023Z,28.34
2023-06-26T11:52:27.048Z,28.81
2023-06-26T11:53:27.010Z,28.90
2023-06-26T11:54:27.023Z,29.07
2023-06-26T11:55:27.050Z,28.90
2023-06-26T11:56:26.983Z,28.75
2023-06-26T11:57:27.057Z,28.65
2023-06-26T11:58:26.986Z,28.12
2023-06-26T11:59:26.979Z,28.40
2023-06-26T12:00:26.982Z,28.43
2023-06-26T12:01:26.947Z,28.53
2023-06-26T12:02:26.974Z,28.31
2023-06-26T12:03:27.187Z,28.24
2023-06-26T12:04:27.100Z,27.79
2023-06-26T12:05:27.020Z,27.34
2023-06-26T12:06:26.897Z,26.71
2023-06-26T12:07:26.963Z,26.52
2023-06-26T12:08:26.852Z,26.39
2023-06-26T12:09:26.842Z,26.31
2023-06-26T12:10:26.891Z,26.42
2023-06-26T12:11:28.439Z,26.48
2023-06-26T12:12:26.797Z,26.79
2023-06-26T12:13:26.803Z,26.64
2023-06-26T12:14:26.886Z,27.01
2023-06-26T12:15:26.820Z,27.13
2023-06-26T12:16:26.772Z,27.26
2023-06-26T12:17:26.797Z,27.63
2023-06-26T12:18:26.761Z,27.63
2023-06-26T12:19:26.784Z,27.78
2023-06-26T12:20:26.790Z,27.75
2023-06-26T12:21:28.707Z,27.53
2023-06-26T12:22:26.731Z,27.70
2023-06-26T12:23:26.861Z,28.03
2023-06-26T12:24:26.754Z,28.01
2023-06-26T12:25:26.682Z,27.91
2023-06-26T12:26:26.742Z,27.97
2023-06-26T12:27:26.665Z,28.07
2023-06-26T12:28:27.145Z,28.62
2023-06-26T12:29:26.647Z,29.10
2023-06-26T12:30:26.734Z,29.37
2023-06-26T12:31:26.612Z,29.47
2023-06-26T12:32:26.780Z,28.65
2023-06-26T12:33:26.607Z,27.88
2023-06-26T12:34:26.583Z,27.94
2023-06-26T12:35:26.563Z,27.87
2023-06-26T12:36:26.602Z,26.71
2023-06-26T12:37:26.560Z,26.48
2023-06-26T12:38:26.560Z,27.13
2023-06-26T12:39:26.520Z,26.88
2023-06-26T12:40:26.669Z,27.03
2023-06-26T12:41:26.522Z,27.27
2023-06-26T12:42:26.520Z,27.34
2023-06-26T12:43:26.720Z,27.01
2023-06-26T12:44:26.496Z,26.52
2023-06-26T12:45:31.649Z,26.28
2023-06-26T12:46:26.484Z,25.86
2023-06-26T12:47:26.499Z,25.53
2023-06-26T12:48:26.429Z,25.45
2023-06-26T12:49:31.655Z,25.31
2023-06-26T12:50:26.416Z,25.30
2023-06-26T12:51:26.406Z,25.52
2023-06-26T12:52:26.430Z,25.71